sensor_id;sensor_type;location;lat;lon;timestamp;pressure;altitude;pressure_sealevel;temperature;humidity
6500;BME280;3283;52.330;9.772;2023-08-17T04:03:17;100382.91;;;12.89;100.00
6500;BME280;3283;52.330;9.772;2023-08-17T04:05:42;100386.28;;;12.95;100.00
6500;BME280;3283;52.330;9.772;2023-08-17T04:08:08;100387.75;;;13.06;100.00
6500;BME280;3283;52.330;9.772;2023-08-17T04:10:33;100378.97;;;13.06;100.00
6500;BME280;3283;52.330;9.772;2023-08-17T04:12:59;100392.25;;;13.03;100.00
6500;BME280;3283;52.330;9.772;2023-08-17T04:15:24;100396.59;;;13.05;100.00
6500;BME280;3283;52.330;9.772;2023-08-17T04:17:49;100399.88;;;13.13;100.00
6500;BME280;3283;52.330;9.772;2023-08-17T04:20:15;100404.09;;;13.22;100.00
6500;BME280;3283;52.330;9.772;2023-08-17T04:22:40;100403.13;;;13.25;100.00
6500;BME280;3283;52.330;9.772;2023-08-17T04:25:06;100407.53;;;13.24;100.00
6500;BME280;3283;52.330;9.772;2023-08-17T04:27:32;100412.56;;;13.35;100.00
6500;BME280;3283;52.330;9.772;2023-08-17T04:29:58;100409.81;;;13.38;100.00
6500;BME280;3283;52.330;9.772;2023-08-17T04:32:23;100411.47;;;13.42;100.00
6500;BME280;3283;52.330;9.772;2023-08-17T04:34:48;100405.38;;;13.40;100.00
6500;BME280;3283;52.330;9.772;2023-08-17T04:37:14;100409.63;;;13.44;100.00
6500;BME280;3283;52.330;9.772;2023-08-17T04:39:39;100400.03;;;13.41;100.00
6500;BME280;3283;52.330;9.772;2023-08-17T04:42:06;100402.63;;;13.43;100.00
6500;BME280;3283;52.330;9.772;2023-08-17T04:44:31;100399.22;;;13.39;100.00
6500;BME280;3283;52.330;9.772;2023-08-17T04:46:56;100401.66;;;13.45;100.00
6500;BME280;3283;52.330;9.772;2023-08-17T04:49:22;100397.25;;;13.46;100.00
6500;BME280;3283;52.330;9.772;2023-08-17T04:51:47;100398.63;;;13.59;100.00
6500;BME280;3283;52.330;9.772;2023-08-17T04:54:12;100415.88;;;13.72;100.00
6500;BME280;3283;52.330;9.772;2023-08-17T04:56:38;100418.28;;;13.80;100.00
6500;BME280;3283;52.330;9.772;2023-08-17T04:59:03;100419.94;;;13.84;100.00
6500;BME280;3283;52.330;9.772;2023-08-17T05:01:29;100414.44;;;13.92;100.00
6500;BME280;3283;52.330;9.772;2023-08-17T05:03:54;100419.63;;;13.95;100.00
6500;BME280;3283;52.330;9.772;2023-08-17T05:06:20;100424.19;;;13.90;100.00
6500;BME280;3283;52.330;9.772;2023-08-17T05:08:45;100423.91;;;13.99;100.00
6500;BME280;3283;52.330;9.772;2023-08-17T05:11:10;100412.56;;;13.95;100.00
6500;BME280;3283;52.330;9.772;2023-08-17T05:13:36;100419.59;;;13.96;100.00
6500;BME280;3283;52.330;9.772;2023-08-17T05:16:01;100409.69;;;14.03;100.00
6500;BME280;3283;52.330;9.772;2023-08-17T05:18:26;100414.88;;;14.06;100.00
6500;BME280;3283;52.330;9.772;2023-08-17T05:20:52;100412.84;;;14.14;100.00
6500;BME280;3283;52.330;9.772;2023-08-17T05:23:17;100416.28;;;14.18;100.00
6500;BME280;3283;52.330;9.772;2023-08-17T05:25:46;100417.00;;;14.23;100.00
6500;BME280;3283;52.330;9.772;2023-08-17T05:28:11;100415.06;;;14.28;100.00
6500;BME280;3283;52.330;9.772;2023-08-17T05:30:36;100419.75;;;14.20;100.00
6500;BME280;3283;52.330;9.772;2023-08-17T05:33:02;100415.31;;;14.20;100.00
6500;BME280;3283;52.330;9.772;2023-08-17T05:35:27;100411.75;;;14.21;100.00
6500;BME280;3283;52.330;9.772;2023-08-17T05:37:53;100417.78;;;14.26;100.00
6500;BME280;3283;52.330;9.772;2023-08-17T05:40:18;100421.22;;;14.28;100.00
6500;BME280;3283;52.330;9.772;2023-08-17T05:42:44;100415.22;;;14.23;100.00
6500;BME280;3283;52.330;9.772;2023-08-17T05:45:09;100416.81;;;14.29;100.00
6500;BME280;3283;52.330;9.772;2023-08-17T05:47:35;100423.25;;;14.20;100.00
6500;BME280;3283;52.330;9.772;2023-08-17T05:50:00;100429.34;;;14.24;100.00
6500;BME280;3283;52.330;9.772;2023-08-17T05:52:26;100427.56;;;14.24;100.00
6500;BME280;3283;52.330;9.772;2023-08-17T05:54:51;100416.88;;;14.27;100.00
6500;BME280;3283;52.330;9.772;2023-08-17T05:57:16;100417.97;;;14.20;100.00
6500;BME280;3283;52.330;9.772;2023-08-17T05:59:42;100416.06;;;14.25;100.00
6500;BME280;3283;52.330;9.772;2023-08-17T06:02:07;100425.66;;;14.28;100.00
6500;BME280;3283;52.330;9.772;2023-08-17T06:04:32;100416.13;;;14.22;100.00
6500;BME280;3283;52.330;9.772;2023-08-17T06:06:58;100419.31;;;14.34;100.00
6500;BME280;3283;52.330;9.772;2023-08-17T06:09:23;100424.75;;;14.29;100.00
6500;BME280;3283;52.330;9.772;2023-08-17T06:11:49;100430.00;;;14.30;100.00
6500;BME280;3283;52.330;9.772;2023-08-17T06:14:14;100426.53;;;14.28;100.00
6500;BME280;3283;52.330;9.772;2023-08-17T06:16:40;100422.97;;;14.29;100.00
6500;BME280;3283;52.330;9.772;2023-08-17T06:19:05;100428.44;;;14.23;100.00
6500;BME280;3283;52.330;9.772;2023-08-17T06:21:31;100428.25;;;14.29;100.00
6500;BME280;3283;52.330;9.772;2023-08-17T06:23:56;100431.09;;;14.23;100.00
6500;BME280;3283;52.330;9.772;2023-08-17T06:26:21;100433.56;;;14.29;100.00
6500;BME280;3283;52.330;9.772;2023-08-17T06:28:47;100438.78;;;14.33;100.00
6500;BME280;3283;52.330;9.772;2023-08-17T06:31:14;100437.91;;;14.32;100.00
6500;BME280;3283;52.330;9.772;2023-08-17T06:33:40;100436.75;;;14.41;100.00
6500;BME280;3283;52.330;9.772;2023-08-17T06:36:05;100438.59;;;14.39;100.00
6500;BME280;3283;52.330;9.772;2023-08-17T06:38:31;100438.66;;;14.36;100.00
6500;BME280;3283;52.330;9.772;2023-08-17T06:40:56;100435.09;;;14.37;100.00
6500;BME280;3283;52.330;9.772;2023-08-17T06:43:21;100432.25;;;14.43;100.00
6500;BME280;3283;52.330;9.772;2023-08-17T06:45:47;100432.44;;;14.37;100.00
6500;BME280;3283;52.330;9.772;2023-08-17T06:48:12;100436.84;;;14.38;100.00
6500;BME280;3283;52.330;9.772;2023-08-17T06:50:37;100437.91;;;14.32;100.00
6500;BME280;3283;52.330;9.772;2023-08-17T06:53:03;100440.50;;;14.34;100.00
6500;BME280;3283;52.330;9.772;2023-08-17T06:55:28;100429.91;;;14.34;100.00
6500;BME280;3283;52.330;9.772;2023-08-17T06:57:54;100433.53;;;14.31;100.00
6500;BME280;3283;52.330;9.772;2023-08-17T07:00:20;100431.56;;;14.38;100.00
6500;BME280;3283;52.330;9.772;2023-08-17T07:02:47;100439.19;;;14.48;100.00
6500;BME280;3283;52.330;9.772;2023-08-17T07:05:14;100437.31;;;14.52;100.00
6500;BME280;3283;52.330;9.772;2023-08-17T07:07:40;100435.56;;;14.51;100.00
6500;BME280;3283;52.330;9.772;2023-08-17T07:10:06;100438.84;;;14.59;100.00
6500;BME280;3283;52.330;9.772;2023-08-17T07:12:32;100445.44;;;14.46;100.00
6500;BME280;3283;52.330;9.772;2023-08-17T07:14:58;100438.31;;;14.48;100.00
6500;BME280;3283;52.330;9.772;2023-08-17T07:17:23;100440.19;;;14.43;100.00
6500;BME280;3283;52.330;9.772;2023-08-17T07:19:49;100443.69;;;14.45;100.00
6500;BME280;3283;52.330;9.772;2023-08-17T07:22:14;100445.44;;;14.46;100.00
6500;BME280;3283;52.330;9.772;2023-08-17T07:24:41;100437.69;;;14.68;100.00
6500;BME280;3283;52.330;9.772;2023-08-17T07:27:07;100449.94;;;14.70;100.00
6500;BME280;3283;52.330;9.772;2023-08-17T07:29:32;100438.16;;;14.79;100.00
6500;BME280;3283;52.330;9.772;2023-08-17T07:31:57;100441.59;;;14.82;100.00
6500;BME280;3283;52.330;9.772;2023-08-17T07:34:26;100436.66;;;14.72;100.00
6500;BME280;3283;52.330;9.772;2023-08-17T07:36:52;100437.44;;;14.75;100.00
6500;BME280;3283;52.330;9.772;2023-08-17T07:39:17;100442.81;;;14.72;100.00
6500;BME280;3283;52.330;9.772;2023-08-17T07:41:43;100440.69;;;14.83;100.00
6500;BME280;3283;52.330;9.772;2023-08-17T07:44:09;100433.78;;;14.78;100.00
6500;BME280;3283;52.330;9.772;2023-08-17T07:46:34;100447.50;;;14.91;100.00
6500;BME280;3283;52.330;9.772;2023-08-17T07:49:00;100444.50;;;15.01;100.00
6500;BME280;3283;52.330;9.772;2023-08-17T07:51:25;100438.97;;;15.07;100.00
6500;BME280;3283;52.330;9.772;2023-08-17T07:53:50;100443.16;;;15.15;100.00
6500;BME280;3283;52.330;9.772;2023-08-17T07:56:16;100445.38;;;15.02;100.00
6500;BME280;3283;52.330;9.772;2023-08-17T07:58:41;100447.78;;;15.08;100.00
6500;BME280;3283;52.330;9.772;2023-08-17T08:01:06;100449.75;;;15.03;100.00
6500;BME280;3283;52.330;9.772;2023-08-17T08:03:32;100447.56;;;15.16;100.00
6500;BME280;3283;52.330;9.772;2023-08-17T08:05:57;100455.25;;;15.23;100.00
6500;BME280;3283;52.330;9.772;2023-08-17T08:08:23;100457.44;;;15.35;100.00
6500;BME280;3283;52.330;9.772;2023-08-17T08:10:48;100452.75;;;15.44;100.00
6500;BME280;3283;52.330;9.772;2023-08-17T08:13:14;100452.00;;;15.40;100.00
6500;BME280;3283;52.330;9.772;2023-08-17T08:15:39;100451.25;;;15.36;100.00
6500;BME280;3283;52.330;9.772;2023-08-17T08:18:05;100454.28;;;15.51;100.00
6500;BME280;3283;52.330;9.772;2023-08-17T08:20:31;100452.00;;;15.40;100.00
6500;BME280;3283;52.330;9.772;2023-08-17T08:22:56;100461.59;;;15.43;100.00
6500;BME280;3283;52.330;9.772;2023-08-17T08:25:22;100452.00;;;15.40;100.00
6500;BME280;3283;52.330;9.772;2023-08-17T08:27:47;100458.38;;;15.34;100.00
6500;BME280;3283;52.330;9.772;2023-08-17T08:30:12;100454.63;;;15.40;100.00
6500;BME280;3283;52.330;9.772;2023-08-17T08:32:38;100457.91;;;15.23;100.00
6500;BME280;3283;52.330;9.772;2023-08-17T08:35:03;100462.81;;;15.09;100.00
6500;BME280;3283;52.330;9.772;2023-08-17T08:37:29;100462.47;;;15.18;100.00
6500;BME280;3283;52.330;9.772;2023-08-17T08:39:55;100450.03;;;15.20;100.00
6500;BME280;3283;52.330;9.772;2023-08-17T08:42:21;100455.34;;;15.20;100.00
6500;BME280;3283;52.330;9.772;2023-08-17T08:44:49;100452.78;;;15.17;100.00
6500;BME280;3283;52.330;9.772;2023-08-17T08:47:16;100456.53;;;15.36;100.00
6500;BME280;3283;52.330;9.772;2023-08-17T08:50:01;100448.53;;;15.38;100.00
6500;BME280;3283;52.330;9.772;2023-08-17T08:52:34;100446.38;;;15.24;100.00
6500;BME280;3283;52.330;9.772;2023-08-17T08:55:18;100448.22;;;15.22;100.00
6500;BME280;3283;52.330;9.772;2023-08-17T08:57:46;100446.84;;;15.35;100.00
6500;BME280;3283;52.330;9.772;2023-08-17T09:00:13;100445.94;;;15.36;100.00
6500;BME280;3283;52.330;9.772;2023-08-17T09:02:38;100451.34;;;15.08;100.00
6500;BME280;3283;52.330;9.772;2023-08-17T09:05:06;100453.28;;;15.28;100.00
6500;BME280;3283;52.330;9.772;2023-08-17T09:07:32;100453.94;;;15.35;100.00
6500;BME280;3283;52.330;9.772;2023-08-17T09:09:58;100456.75;;;15.55;100.00
6500;BME280;3283;52.330;9.772;2023-08-17T09:12:24;100449.03;;;15.74;100.00
6500;BME280;3283;52.330;9.772;2023-08-17T09:14:50;100448.31;;;15.69;100.00
6500;BME280;3283;52.330;9.772;2023-08-17T09:17:23;100449.94;;;15.73;100.00
6500;BME280;3283;52.330;9.772;2023-08-17T09:19:48;100456.88;;;15.52;100.00
6500;BME280;3283;52.330;9.772;2023-08-17T09:22:22;100446.31;;;15.76;100.00
6500;BME280;3283;52.330;9.772;2023-08-17T09:24:48;100450.47;;;15.83;100.00
6500;BME280;3283;52.330;9.772;2023-08-17T09:27:13;100448.59;;;15.85;100.00
6500;BME280;3283;52.330;9.772;2023-08-17T09:29:42;100450.03;;;15.45;100.00
6500;BME280;3283;52.330;9.772;2023-08-17T09:32:08;100449.28;;;15.42;100.00
6500;BME280;3283;52.330;9.772;2023-08-17T09:34:35;100450.16;;;15.17;100.00
6500;BME280;3283;52.330;9.772;2023-08-17T09:37:04;100449.28;;;15.17;100.00
6500;BME280;3283;52.330;9.772;2023-08-17T09:39:30;100435.97;;;15.18;100.00
6500;BME280;3283;52.330;9.772;2023-08-17T09:41:56;100442.78;;;15.25;100.00
6500;BME280;3283;52.330;9.772;2023-08-17T09:44:22;100442.16;;;15.44;100.00
6500;BME280;3283;52.330;9.772;2023-08-17T09:46:47;100443.53;;;15.29;100.00
6500;BME280;3283;52.330;9.772;2023-08-17T09:49:13;100444.84;;;14.91;100.00
6500;BME280;3283;52.330;9.772;2023-08-17T09:51:41;100445.56;;;14.69;100.00
6500;BME280;3283;52.330;9.772;2023-08-17T09:54:07;100441.22;;;14.93;100.00
6500;BME280;3283;52.330;9.772;2023-08-17T09:56:32;100445.56;;;14.96;100.00
6500;BME280;3283;52.330;9.772;2023-08-17T09:58:59;100441.78;;;15.29;100.00
6500;BME280;3283;52.330;9.772;2023-08-17T10:01:25;100435.34;;;15.36;100.00
6500;BME280;3283;52.330;9.772;2023-08-17T10:03:54;100433.63;;;15.34;100.00
6500;BME280;3283;52.330;9.772;2023-08-17T10:06:22;100439.13;;;15.29;100.00
6500;BME280;3283;52.330;9.772;2023-08-17T10:08:52;100441.66;;;15.32;100.00
6500;BME280;3283;52.330;9.772;2023-08-17T10:11:19;100436.84;;;15.19;100.00
6500;BME280;3283;52.330;9.772;2023-08-17T10:13:52;100446.25;;;15.27;100.00
6500;BME280;3283;52.330;9.772;2023-08-17T10:16:22;100445.66;;;14.93;100.00
6500;BME280;3283;52.330;9.772;2023-08-17T10:19:05;100444.56;;;14.73;100.00
6500;BME280;3283;52.330;9.772;2023-08-17T10:21:39;100442.06;;;15.20;100.00
6500;BME280;3283;52.330;9.772;2023-08-17T10:24:05;100437.09;;;15.36;100.00
6500;BME280;3283;52.330;9.772;2023-08-17T10:26:33;100440.25;;;15.47;100.00
6500;BME280;3283;52.330;9.772;2023-08-17T10:28:58;100433.81;;;15.29;100.00
6500;BME280;3283;52.330;9.772;2023-08-17T10:31:27;100442.72;;;15.02;100.00
6500;BME280;3283;52.330;9.772;2023-08-17T10:33:52;100441.53;;;14.84;100.00
6500;BME280;3283;52.330;9.772;2023-08-17T10:36:18;100436.09;;;14.62;100.00
6500;BME280;3283;52.330;9.772;2023-08-17T10:38:44;100440.03;;;14.49;100.00
6500;BME280;3283;52.330;9.772;2023-08-17T10:41:14;100437.72;;;14.38;100.00
6500;BME280;3283;52.330;9.772;2023-08-17T10:43:59;100445.34;;;14.19;100.00
6500;BME280;3283;52.330;9.772;2023-08-17T10:46:34;100448.84;;;14.49;100.00
6500;BME280;3283;52.330;9.772;2023-08-17T10:49:04;100442.16;;;14.38;100.00
6500;BME280;3283;52.330;9.772;2023-08-17T10:51:31;100452.88;;;14.33;100.00
6500;BME280;3283;52.330;9.772;2023-08-17T10:53:58;100453.63;;;14.37;100.00
6500;BME280;3283;52.330;9.772;2023-08-17T10:56:26;100459.50;;;14.48;100.00
6500;BME280;3283;52.330;9.772;2023-08-17T10:58:52;100459.09;;;14.30;100.00
6500;BME280;3283;52.330;9.772;2023-08-17T11:01:35;100459.75;;;14.39;100.00
6500;BME280;3283;52.330;9.772;2023-08-17T11:04:15;100466.59;;;14.18;100.00
6500;BME280;3283;52.330;9.772;2023-08-17T11:06:43;100461.13;;;14.22;100.00
6500;BME280;3283;52.330;9.772;2023-08-17T11:09:08;100471.44;;;14.02;100.00
6500;BME280;3283;52.330;9.772;2023-08-17T11:11:43;100481.38;;;13.95;100.00
6500;BME280;3283;52.330;9.772;2023-08-17T11:14:16;100482.25;;;13.94;100.00
6500;BME280;3283;52.330;9.772;2023-08-17T11:16:42;100480.91;;;14.11;100.00
6500;BME280;3283;52.330;9.772;2023-08-17T11:19:07;100478.78;;;14.22;100.00
6500;BME280;3283;52.330;9.772;2023-08-17T11:21:32;100485.34;;;14.10;100.00
6500;BME280;3283;52.330;9.772;2023-08-17T11:23:58;100491.63;;;14.06;100.00
6500;BME280;3283;52.330;9.772;2023-08-17T11:26:24;100488.56;;;14.20;100.00
6500;BME280;3283;52.330;9.772;2023-08-17T11:28:49;100483.97;;;14.26;100.00
6500;BME280;3283;52.330;9.772;2023-08-17T11:31:15;100484.59;;;14.35;100.00
6500;BME280;3283;52.330;9.772;2023-08-17T11:33:40;100488.78;;;14.12;100.00
6500;BME280;3283;52.330;9.772;2023-08-17T11:36:07;100486.69;;;14.23;100.00
6500;BME280;3283;52.330;9.772;2023-08-17T11:38:38;100488.66;;;14.17;100.00
6500;BME280;3283;52.330;9.772;2023-08-17T11:41:05;100490.25;;;14.22;100.00
6500;BME280;3283;52.330;9.772;2023-08-17T11:43:32;100493.34;;;14.37;100.00
6500;BME280;3283;52.330;9.772;2023-08-17T11:45:57;100494.78;;;14.76;100.00
6500;BME280;3283;52.330;9.772;2023-08-17T11:48:23;100494.69;;;14.51;100.00
6500;BME280;3283;52.330;9.772;2023-08-17T11:50:49;100488.75;;;14.71;100.00
6500;BME280;3283;52.330;9.772;2023-08-17T11:53:14;100489.81;;;14.38;100.00
6500;BME280;3283;52.330;9.772;2023-08-17T11:55:40;100496.66;;;14.45;100.00
6500;BME280;3283;52.330;9.772;2023-08-17T11:58:05;100499.50;;;14.37;100.00
6500;BME280;3283;52.330;9.772;2023-08-17T12:00:36;100493.38;;;14.65;100.00
6500;BME280;3283;52.330;9.772;2023-08-17T12:03:02;100497.63;;;14.41;100.00
6500;BME280;3283;52.330;9.772;2023-08-17T12:05:30;100492.94;;;14.52;100.00
6500;BME280;3283;52.330;9.772;2023-08-17T12:07:56;100492.63;;;14.32;100.00
6500;BME280;3283;52.330;9.772;2023-08-17T12:10:22;100494.69;;;14.51;100.00
6500;BME280;3283;52.330;9.772;2023-08-17T12:12:48;100499.53;;;14.67;100.00
6500;BME280;3283;52.330;9.772;2023-08-17T12:15:15;100495.53;;;14.53;100.00
6500;BME280;3283;52.330;9.772;2023-08-17T12:17:48;100495.91;;;14.69;100.00
6500;BME280;3283;52.330;9.772;2023-08-17T12:20:20;100488.44;;;14.54;100.00
6500;BME280;3283;52.330;9.772;2023-08-17T12:22:46;100494.66;;;14.53;100.00
6500;BME280;3283;52.330;9.772;2023-08-17T12:25:12;100496.66;;;14.45;100.00
6500;BME280;3283;52.330;9.772;2023-08-17T12:27:38;100488.03;;;14.37;100.00
6500;BME280;3283;52.330;9.772;2023-08-17T12:30:05;100497.31;;;14.51;100.00
6500;BME280;3283;52.330;9.772;2023-08-17T12:32:36;100498.41;;;14.46;100.00
6500;BME280;3283;52.330;9.772;2023-08-17T12:35:02;100496.56;;;14.48;100.00
6500;BME280;3283;52.330;9.772;2023-08-17T12:37:29;100485.06;;;14.49;100.00
6500;BME280;3283;52.330;9.772;2023-08-17T12:39:54;100483.41;;;14.45;100.00
6500;BME280;3283;52.330;9.772;2023-08-17T12:42:19;100485.06;;;14.19;100.00
6500;BME280;3283;52.330;9.772;2023-08-17T12:44:45;100481.03;;;14.36;100.00
6500;BME280;3283;52.330;9.772;2023-08-17T12:47:10;100488.13;;;14.63;100.00
6500;BME280;3283;52.330;9.772;2023-08-17T12:49:35;100489.34;;;14.53;100.00
6500;BME280;3283;52.330;9.772;2023-08-17T12:52:01;100483.75;;;14.62;100.00
6500;BME280;3283;52.330;9.772;2023-08-17T12:54:27;100487.22;;;14.64;100.00
6500;BME280;3283;52.330;9.772;2023-08-17T12:56:52;100486.50;;;14.29;100.00
6500;BME280;3283;52.330;9.772;2023-08-17T12:59:17;100497.59;;;14.42;100.00
6500;BME280;3283;52.330;9.772;2023-08-17T13:01:43;100485.56;;;14.32;100.00
6500;BME280;3283;52.330;9.772;2023-08-17T13:04:08;100496.28;;;14.27;100.00
6500;BME280;3283;52.330;9.772;2023-08-17T13:06:33;100496.16;;;14.02;100.00
6500;BME280;3283;52.330;9.772;2023-08-17T13:08:59;100491.25;;;14.18;100.00
6500;BME280;3283;52.330;9.772;2023-08-17T13:11:24;100493.44;;;14.34;100.00
6500;BME280;3283;52.330;9.772;2023-08-17T13:13:52;100491.53;;;14.39;100.00
6500;BME280;3283;52.330;9.772;2023-08-17T13:16:17;100492.03;;;14.22;100.00
6500;BME280;3283;52.330;9.772;2023-08-17T13:18:43;100501.00;;;14.18;100.00
6500;BME280;3283;52.330;9.772;2023-08-17T13:21:09;100494.03;;;14.14;100.00
6500;BME280;3283;52.330;9.772;2023-08-17T13:23:34;100489.75;;;14.10;100.00
6500;BME280;3283;52.330;9.772;2023-08-17T13:25:59;100490.63;;;14.10;100.00
6500;BME280;3283;52.330;9.772;2023-08-17T13:28:24;100496.84;;;14.08;100.00
6500;BME280;3283;52.330;9.772;2023-08-17T13:30:50;100496.63;;;14.17;100.00
6500;BME280;3283;52.330;9.772;2023-08-17T13:33:15;100488.88;;;14.39;100.00
6500;BME280;3283;52.330;9.772;2023-08-17T13:35:42;100486.31;;;14.36;100.00
6500;BME280;3283;52.330;9.772;2023-08-17T13:38:07;100488.38;;;14.26;100.00
6500;BME280;3283;52.330;9.772;2023-08-17T13:40:32;100489.75;;;14.10;100.00
6500;BME280;3283;52.330;9.772;2023-08-17T13:42:59;100488.63;;;14.18;100.00
6500;BME280;3283;52.330;9.772;2023-08-17T13:45:26;100488.78;;;14.42;100.00
6500;BME280;3283;52.330;9.772;2023-08-17T13:47:51;100490.97;;;14.85;100.00
6500;BME280;3283;52.330;9.772;2023-08-17T13:50:17;100480.00;;;14.69;100.00
6500;BME280;3283;52.330;9.772;2023-08-17T13:52:44;100475.72;;;14.92;100.00
6500;BME280;3283;52.330;9.772;2023-08-17T13:55:10;100474.38;;;14.80;100.00
6500;BME280;3283;52.330;9.772;2023-08-17T13:57:35;100477.69;;;14.59;100.00
6500;BME280;3283;52.330;9.772;2023-08-17T14:00:01;100471.59;;;14.27;100.00
6500;BME280;3283;52.330;9.772;2023-08-17T14:02:26;100474.00;;;14.35;100.00
6500;BME280;3283;52.330;9.772;2023-08-17T14:04:53;100479.28;;;14.35;100.00
6500;BME280;3283;52.330;9.772;2023-08-17T14:07:19;100477.91;;;14.52;100.00
6500;BME280;3283;52.330;9.772;2023-08-17T14:09:44;100470.25;;;14.42;100.00
6500;BME280;3283;52.330;9.772;2023-08-17T14:12:10;100474.63;;;14.43;100.00
6500;BME280;3283;52.330;9.772;2023-08-17T14:14:35;100484.34;;;14.42;100.00
6500;BME280;3283;52.330;9.772;2023-08-17T14:17:01;100484.50;;;14.38;100.00
6500;BME280;3283;52.330;9.772;2023-08-17T14:19:29;100480.06;;;14.38;100.00
6500;BME280;3283;52.330;9.772;2023-08-17T14:21:55;100474.38;;;14.52;100.00
6500;BME280;3283;52.330;9.772;2023-08-17T14:24:23;100477.78;;;14.55;100.00
6500;BME280;3283;52.330;9.772;2023-08-17T14:26:49;100478.13;;;14.45;100.00
6500;BME280;3283;52.330;9.772;2023-08-17T14:29:15;100482.63;;;14.41;100.00
6500;BME280;3283;52.330;9.772;2023-08-17T14:31:41;100479.63;;;14.24;100.00
6500;BME280;3283;52.330;9.772;2023-08-17T14:34:06;100476.00;;;14.26;100.00
6500;BME280;3283;52.330;9.772;2023-08-17T14:36:32;100474.13;;;14.30;100.00
6500;BME280;3283;52.330;9.772;2023-08-17T14:38:57;100474.34;;;14.22;100.00
6500;BME280;3283;52.330;9.772;2023-08-17T14:41:23;100480.72;;;14.17;100.00
6500;BME280;3283;52.330;9.772;2023-08-17T14:43:48;100474.88;;;14.06;100.00
6500;BME280;3283;52.330;9.772;2023-08-17T14:46:14;100477.47;;;14.07;100.00
6500;BME280;3283;52.330;9.772;2023-08-17T14:48:39;100472.63;;;14.21;100.00
6500;BME280;3283;52.330;9.772;2023-08-17T14:51:05;100467.97;;;14.29;100.00
6500;BME280;3283;52.330;9.772;2023-08-17T14:53:30;100470.63;;;14.29;100.00
6500;BME280;3283;52.330;9.772;2023-08-17T14:55:58;100477.16;;;14.18;100.00
6500;BME280;3283;52.330;9.772;2023-08-17T14:58:24;100475.16;;;14.26;100.00
6500;BME280;3283;52.330;9.772;2023-08-17T15:00:49;100472.88;;;14.42;100.00
6500;BME280;3283;52.330;9.772;2023-08-17T15:03:15;100463.94;;;14.18;100.00
6500;BME280;3283;52.330;9.772;2023-08-17T15:05:40;100472.56;;;14.24;100.00
6500;BME280;3283;52.330;9.772;2023-08-17T15:08:06;100480.63;;;14.20;100.00
6500;BME280;3283;52.330;9.772;2023-08-17T15:10:32;100476.41;;;14.42;100.00
6500;BME280;3283;52.330;9.772;2023-08-17T15:12:58;100474.47;;;14.19;100.00
6500;BME280;3283;52.330;9.772;2023-08-17T15:15:24;100476.81;;;14.28;100.00
6500;BME280;3283;52.330;9.772;2023-08-17T15:17:49;100470.84;;;14.22;100.00
6500;BME280;3283;52.330;9.772;2023-08-17T15:20:14;100468.19;;;14.22;100.00
6500;BME280;3283;52.330;9.772;2023-08-17T15:22:40;100472.56;;;14.24;100.00
6500;BME280;3283;52.330;9.772;2023-08-17T15:25:05;100471.50;;;14.00;100.00
6500;BME280;3283;52.330;9.772;2023-08-17T15:27:31;100468.72;;;14.05;100.00
6500;BME280;3283;52.330;9.772;2023-08-17T15:29:57;100464.59;;;13.95;100.00
6500;BME280;3283;52.330;9.772;2023-08-17T15:32:22;100462.22;;;14.15;100.00
6500;BME280;3283;52.330;9.772;2023-08-17T15:34:48;100458.63;;;14.18;100.00
6500;BME280;3283;52.330;9.772;2023-08-17T15:37:13;100468.63;;;14.08;100.00
6500;BME280;3283;52.330;9.772;2023-08-17T15:39:39;100465.03;;;14.11;100.00
6500;BME280;3283;52.330;9.772;2023-08-17T15:42:04;100464.28;;;14.06;100.00
6500;BME280;3283;52.330;9.772;2023-08-17T15:44:30;100466.84;;;14.09;100.00
6500;BME280;3283;52.330;9.772;2023-08-17T15:46:57;100463.50;;;14.32;100.00
6500;BME280;3283;52.330;9.772;2023-08-17T15:49:23;100469.25;;;14.16;100.00
6500;BME280;3283;52.330;9.772;2023-08-17T15:51:49;100461.97;;;14.24;100.00
6500;BME280;3283;52.330;9.772;2023-08-17T15:54:14;100467.25;;;14.24;100.00
6500;BME280;3283;52.330;9.772;2023-08-17T15:56:39;100460.38;;;14.19;100.00
6500;BME280;3283;52.330;9.772;2023-08-17T15:59:05;100465.78;;;14.14;100.00
6500;BME280;3283;52.330;9.772;2023-08-17T16:01:30;100465.31;;;14.29;100.00
6500;BME280;3283;52.330;9.772;2023-08-17T16:03:56;100461.19;;;14.21;100.00
6500;BME280;3283;52.330;9.772;2023-08-17T16:06:21;100461.19;;;14.21;100.00
6500;BME280;3283;52.330;9.772;2023-08-17T16:08:46;100460.19;;;14.25;100.00
6500;BME280;3283;52.330;9.772;2023-08-17T16:11:12;100466.25;;;14.28;100.00
6500;BME280;3283;52.330;9.772;2023-08-17T16:13:40;100461.78;;;14.01;100.00
6500;BME280;3283;52.330;9.772;2023-08-17T16:16:06;100468.59;;;14.10;100.00
6500;BME280;3283;52.330;9.772;2023-08-17T16:18:31;100463.31;;;14.10;100.00
6500;BME280;3283;52.330;9.772;2023-08-17T16:20:57;100462.50;;;14.06;100.00
6500;BME280;3283;52.330;9.772;2023-08-17T16:23:22;100461.69;;;14.04;100.00
6500;BME280;3283;52.330;9.772;2023-08-17T16:25:48;100455.31;;;14.11;100.00
6500;BME280;3283;52.330;9.772;2023-08-17T16:28:13;100452.66;;;14.11;100.00
6500;BME280;3283;52.330;9.772;2023-08-17T16:30:38;100462.56;;;14.05;100.00
6500;BME280;3283;52.330;9.772;2023-08-17T16:33:06;100457.84;;;14.14;100.00
6500;BME280;3283;52.330;9.772;2023-08-17T16:35:32;100456.75;;;14.21;100.00
6500;BME280;3283;52.330;9.772;2023-08-17T16:37:57;100460.06;;;14.28;100.00
6500;BME280;3283;52.330;9.772;2023-08-17T16:40:23;100460.31;;;14.20;100.00
6500;BME280;3283;52.330;9.772;2023-08-17T16:42:48;100464.63;;;14.23;100.00
